createdAt,value
2022-08-21T00:01:42.084Z,26.10
2022-08-21T00:04:09.472Z,26.10
2022-08-21T00:06:37.145Z,26.10
2022-08-21T00:09:06.731Z,26.10
2022-08-21T00:11:34.479Z,26.10
2022-08-21T00:14:01.193Z,26.10
2022-08-21T00:16:28.486Z,26.10
2022-08-21T00:18:55.326Z,26.10
2022-08-21T00:21:23.195Z,26.10
2022-08-21T00:23:49.909Z,26.10
2022-08-21T00:26:16.570Z,26.10
2022-08-21T00:28:43.675Z,26.10
2022-08-21T00:31:11.322Z,26.10
2022-08-21T00:33:38.050Z,26.10
2022-08-21T00:36:04.740Z,26.10
2022-08-21T00:38:32.293Z,26.10
2022-08-21T00:41:00.342Z,26.10
2022-08-21T00:43:48.547Z,26.10
2022-08-21T00:46:15.213Z,26.20
2022-08-21T00:48:41.865Z,26.10
2022-08-21T00:51:11.085Z,26.10
2022-08-21T00:53:39.211Z,26.10
2022-08-21T00:56:07.989Z,26.10
2022-08-21T00:58:38.615Z,26.10
2022-08-21T01:01:08.786Z,26.10
2022-08-21T01:03:35.691Z,26.10
2022-08-21T01:08:48.392Z,26.10
2022-08-21T01:11:17.040Z,26.10
2022-08-21T01:13:47.114Z,26.10
2022-08-21T01:16:16.293Z,26.10
2022-08-21T01:18:43.301Z,26.10
2022-08-21T01:21:12.783Z,26.10
2022-08-21T01:23:41.395Z,26.10
2022-08-21T01:26:08.631Z,26.10
2022-08-21T01:28:41.647Z,26.10
2022-08-21T01:31:11.684Z,26.10
2022-08-21T01:33:38.411Z,26.10
2022-08-21T01:36:05.558Z,26.10
2022-08-21T01:38:35.538Z,26.20
2022-08-21T01:41:02.201Z,26.10
2022-08-21T01:43:34.775Z,26.10
2022-08-21T01:46:06.282Z,26.20
2022-08-21T01:48:33.138Z,26.10
2022-08-21T01:50:59.935Z,26.10
2022-08-21T01:53:27.692Z,26.20
2022-08-21T01:55:54.813Z,26.10
2022-08-21T01:58:21.589Z,26.20
2022-08-21T02:00:48.414Z,26.20
2022-08-21T02:03:15.203Z,26.10
2022-08-21T02:05:53.196Z,26.10
2022-08-21T02:08:19.924Z,26.10
2022-08-21T02:10:49.022Z,26.10
2022-08-21T02:13:15.933Z,26.10
2022-08-21T02:15:42.714Z,26.10
2022-08-21T02:18:09.381Z,26.10
2022-08-21T02:20:41.379Z,26.10
2022-08-21T02:23:09.176Z,26.10
2022-08-21T02:25:35.913Z,26.10
2022-08-21T02:28:08.794Z,26.10
2022-08-21T02:30:38.968Z,26.10
2022-08-21T02:33:06.331Z,26.10
2022-08-21T02:35:33.112Z,26.10
2022-08-21T02:38:01.818Z,26.10
2022-08-21T02:40:31.635Z,26.10
2022-08-21T02:42:59.242Z,26.10
2022-08-21T02:45:26.001Z,26.10
2022-08-21T02:47:53.649Z,26.10
2022-08-21T02:50:26.056Z,26.10
2022-08-21T02:52:55.150Z,26.10
2022-08-21T02:55:27.263Z,26.10
2022-08-21T02:57:54.621Z,26.10
2022-08-21T03:00:21.605Z,26.10
2022-08-21T03:02:49.833Z,26.10
2022-08-21T03:05:16.866Z,26.10
2022-08-21T03:07:44.851Z,26.10
2022-08-21T03:10:12.699Z,26.10
2022-08-21T03:12:39.365Z,26.10
2022-08-21T03:15:07.507Z,26.10
2022-08-21T03:17:35.926Z,26.10
2022-08-21T03:20:04.067Z,26.10
2022-08-21T03:22:31.060Z,26.10
2022-08-21T03:24:58.974Z,26.10
2022-08-21T03:27:27.540Z,26.10
2022-08-21T03:29:56.034Z,26.10
2022-08-21T03:32:22.911Z,26.10
2022-08-21T03:34:49.685Z,26.10
2022-08-21T03:37:16.704Z,26.10
2022-08-21T03:39:45.034Z,26.10
2022-08-21T03:42:12.249Z,26.10
2022-08-21T03:44:40.523Z,26.10
2022-08-21T03:47:09.579Z,26.10
2022-08-21T03:49:36.351Z,26.10
2022-08-21T03:52:03.608Z,26.10
2022-08-21T03:54:31.071Z,26.10
2022-08-21T03:56:57.814Z,26.10
2022-08-21T03:59:25.171Z,26.10
2022-08-21T04:01:55.737Z,26.10
2022-08-21T04:04:22.478Z,26.10
2022-08-21T04:06:50.207Z,26.10
2022-08-21T04:09:19.049Z,26.10
2022-08-21T04:12:00.884Z,26.10
2022-08-21T04:14:36.686Z,26.10
2022-08-21T04:17:03.524Z,26.10
2022-08-21T04:19:30.194Z,26.10
2022-08-21T04:21:58.246Z,26.10
2022-08-21T04:24:24.965Z,26.10
2022-08-21T04:26:56.676Z,26.10
2022-08-21T04:29:23.504Z,26.10
2022-08-21T04:31:50.201Z,26.10
2022-08-21T04:34:16.906Z,26.10
2022-08-21T04:36:44.117Z,26.10
2022-08-21T04:39:10.962Z,26.10
2022-08-21T04:41:37.641Z,26.10
2022-08-21T04:44:05.006Z,26.10
2022-08-21T04:46:31.721Z,26.10
2022-08-21T04:48:58.388Z,26.10
2022-08-21T04:51:36.909Z,26.10
2022-08-21T04:54:23.924Z,26.10
2022-08-21T04:56:50.622Z,26.10
2022-08-21T04:59:19.736Z,26.10
2022-08-21T05:01:46.656Z,26.10
2022-08-21T05:04:16.194Z,26.10
2022-08-21T05:06:44.564Z,26.10
2022-08-21T05:09:13.778Z,26.10
2022-08-21T05:11:40.778Z,26.10
2022-08-21T05:14:07.463Z,26.10
2022-08-21T05:16:37.000Z,26.10
2022-08-21T05:19:04.625Z,26.10
2022-08-21T05:21:31.303Z,26.20
2022-08-21T05:24:00.433Z,26.20
2022-08-21T05:26:27.939Z,26.20
2022-08-21T05:28:54.642Z,26.30
2022-08-21T05:31:21.349Z,26.30
2022-08-21T05:33:48.026Z,26.30
2022-08-21T05:36:19.298Z,26.40
2022-08-21T05:38:46.372Z,26.40
2022-08-21T05:41:13.977Z,26.40
2022-08-21T05:43:40.761Z,26.40
2022-08-21T05:46:08.646Z,26.40
2022-08-21T05:48:36.324Z,26.40
2022-08-21T05:51:07.138Z,26.40
2022-08-21T05:53:33.831Z,26.40
2022-08-21T05:56:00.606Z,26.40
2022-08-21T05:58:27.268Z,26.40
2022-08-21T06:00:54.138Z,26.50
2022-08-21T06:03:22.857Z,26.50
2022-08-21T06:05:49.598Z,26.50
2022-08-21T06:08:17.220Z,26.50
2022-08-21T06:10:45.448Z,26.50
2022-08-21T06:13:12.753Z,26.50
2022-08-21T06:15:39.521Z,26.50
2022-08-21T06:18:06.591Z,26.50
2022-08-21T06:20:33.597Z,26.60
2022-08-21T06:23:00.888Z,26.60
2022-08-21T06:25:27.960Z,26.60
2022-08-21T06:28:00.843Z,26.60
2022-08-21T06:30:27.563Z,26.60
2022-08-21T06:32:54.261Z,26.60
2022-08-21T06:35:21.026Z,26.60
2022-08-21T06:37:47.743Z,26.70
2022-08-21T06:40:14.515Z,26.60
2022-08-21T06:42:42.828Z,26.60
2022-08-21T06:45:10.349Z,26.60
2022-08-21T06:47:37.167Z,26.80
2022-08-21T06:50:04.618Z,26.80
2022-08-21T06:52:32.445Z,26.90
2022-08-21T06:55:00.558Z,27.00
2022-08-21T06:57:27.268Z,27.00
2022-08-21T06:59:53.981Z,27.00
2022-08-21T07:02:20.658Z,27.10
2022-08-21T07:04:47.346Z,27.10
2022-08-21T07:07:14.101Z,27.10
2022-08-21T07:09:40.765Z,27.10
2022-08-21T07:12:07.647Z,27.10
2022-08-21T07:14:34.544Z,27.00
2022-08-21T07:17:01.836Z,27.00
2022-08-21T07:19:28.801Z,26.80
2022-08-21T07:21:58.581Z,26.80
2022-08-21T07:24:25.490Z,26.80
2022-08-21T07:26:52.215Z,26.80
2022-08-21T07:29:19.667Z,26.80
2022-08-21T07:31:46.709Z,26.80
2022-08-21T07:34:13.772Z,26.70
2022-08-21T07:36:40.555Z,26.80
2022-08-21T07:39:07.237Z,26.70
2022-08-21T07:41:35.376Z,26.70
2022-08-21T07:44:02.581Z,26.50
2022-08-21T07:46:29.386Z,26.60
2022-08-21T07:48:56.088Z,26.50
2022-08-21T07:51:25.629Z,26.40
2022-08-21T07:53:53.641Z,26.40
2022-08-21T07:56:21.038Z,26.40
2022-08-21T07:58:48.840Z,26.40
2022-08-21T08:01:15.925Z,26.40
2022-08-21T08:03:42.670Z,26.40
2022-08-21T08:06:14.388Z,26.60
2022-08-21T08:08:41.772Z,26.60
2022-08-21T08:11:11.519Z,26.70
2022-08-21T08:13:50.500Z,26.90
2022-08-21T08:16:17.636Z,27.00
2022-08-21T08:18:45.692Z,27.00
2022-08-21T08:21:15.222Z,26.90
2022-08-21T08:23:41.951Z,26.80
2022-08-21T08:26:08.708Z,26.60
2022-08-21T08:28:36.707Z,26.70
2022-08-21T08:31:03.781Z,26.70
2022-08-21T08:33:30.482Z,26.60
2022-08-21T08:35:57.723Z,26.50
2022-08-21T08:38:26.312Z,26.50
2022-08-21T08:40:55.819Z,26.60
2022-08-21T08:43:22.687Z,26.70
2022-08-21T08:45:51.306Z,26.70
2022-08-21T08:48:27.806Z,26.80
2022-08-21T08:50:55.901Z,26.90
2022-08-21T08:53:25.263Z,26.90
2022-08-21T08:55:53.646Z,26.80
2022-08-21T08:58:40.558Z,26.80
2022-08-21T09:01:11.737Z,26.70
2022-08-21T09:03:39.400Z,26.80
2022-08-21T09:06:17.758Z,27.10
2022-08-21T09:08:44.430Z,27.10
2022-08-21T09:11:19.811Z,27.20
2022-08-21T09:13:52.265Z,27.20
2022-08-21T09:16:30.919Z,27.20
2022-08-21T09:19:03.781Z,27.30
2022-08-21T09:21:30.493Z,27.40
2022-08-21T09:23:57.825Z,27.40
2022-08-21T09:26:31.592Z,27.40
2022-08-21T09:29:01.614Z,27.30
2022-08-21T09:31:30.118Z,27.10
2022-08-21T09:34:00.885Z,27.00
2022-08-21T09:36:34.228Z,27.00
2022-08-21T09:39:00.928Z,26.90
2022-08-21T09:41:29.476Z,27.00
2022-08-21T09:43:56.306Z,27.00
2022-08-21T09:46:24.986Z,27.20
2022-08-21T09:48:53.383Z,27.40
2022-08-21T09:51:22.890Z,27.30
2022-08-21T09:53:51.934Z,27.30
2022-08-21T09:56:41.768Z,27.40
2022-08-21T09:59:19.689Z,27.40
2022-08-21T10:01:48.751Z,27.20
2022-08-21T10:04:15.863Z,27.10
2022-08-21T10:06:45.208Z,27.10
2022-08-21T10:09:19.855Z,27.10
2022-08-21T10:12:11.191Z,27.10
2022-08-21T10:14:45.681Z,27.10
2022-08-21T10:17:24.306Z,27.30
2022-08-21T10:20:01.335Z,27.40
2022-08-21T10:22:35.234Z,27.50
2022-08-21T10:25:01.866Z,27.60
2022-08-21T10:27:31.285Z,27.60
2022-08-21T10:30:07.979Z,27.60
2022-08-21T10:32:37.326Z,27.30
2022-08-21T10:35:22.995Z,27.10
2022-08-21T10:37:57.943Z,27.00
2022-08-21T10:40:44.744Z,26.90
2022-08-21T10:43:37.536Z,26.90
2022-08-21T10:46:04.278Z,26.90
2022-08-21T10:48:33.850Z,27.00
2022-08-21T10:51:03.501Z,27.00
2022-08-21T10:53:36.978Z,26.90
2022-08-21T10:56:10.329Z,26.90
2022-08-21T10:58:45.966Z,27.00
2022-08-21T11:01:14.872Z,27.10
2022-08-21T11:03:52.818Z,27.00
2022-08-21T11:06:28.204Z,27.00
2022-08-21T11:08:59.099Z,27.00
2022-08-21T11:11:32.457Z,27.10
2022-08-21T11:14:11.088Z,27.10
2022-08-21T11:16:40.783Z,27.30
2022-08-21T11:19:07.444Z,27.40
2022-08-21T11:21:35.678Z,27.50
2022-08-21T11:24:11.627Z,27.30
2022-08-21T11:26:43.141Z,27.20
2022-08-21T11:29:17.895Z,27.10
2022-08-21T11:32:02.143Z,27.20
2022-08-21T11:34:31.785Z,27.10
2022-08-21T11:37:17.262Z,27.30
2022-08-21T11:39:43.980Z,27.40
2022-08-21T11:42:25.585Z,27.50
2022-08-21T11:44:58.378Z,27.40
2022-08-21T11:47:31.166Z,27.50
2022-08-21T11:49:57.785Z,27.30
2022-08-21T11:52:24.463Z,27.10
2022-08-21T11:54:59.884Z,27.10
2022-08-21T11:57:32.068Z,27.00
2022-08-21T12:00:01.798Z,27.00
2022-08-21T12:02:30.475Z,27.10
2022-08-21T12:05:00.259Z,27.30
2022-08-21T12:07:45.570Z,27.50
2022-08-21T12:10:14.548Z,27.60
2022-08-21T12:12:42.083Z,27.30
2022-08-21T12:15:17.828Z,27.30
2022-08-21T12:18:07.981Z,27.30
2022-08-21T12:20:34.671Z,27.40
2022-08-21T12:23:13.096Z,27.20
2022-08-21T12:25:42.261Z,27.10
2022-08-21T12:28:14.301Z,27.10
2022-08-21T12:30:47.058Z,27.10
2022-08-21T12:33:34.748Z,27.10
2022-08-21T12:36:13.483Z,27.10
2022-08-21T12:38:49.421Z,27.10
2022-08-21T12:41:43.323Z,27.10
2022-08-21T12:44:13.701Z,27.10
2022-08-21T12:46:54.291Z,27.10
2022-08-21T12:49:22.203Z,27.10
2022-08-21T12:51:55.991Z,27.10
2022-08-21T12:54:31.119Z,27.10
2022-08-21T12:57:02.486Z,27.10
2022-08-21T12:59:29.705Z,27.10
2022-08-21T13:01:57.627Z,27.10
2022-08-21T13:04:33.666Z,27.10
2022-08-21T13:07:00.971Z,27.20
2022-08-21T13:09:30.604Z,27.40
2022-08-21T13:11:58.366Z,27.30
2022-08-21T13:14:45.151Z,27.20
2022-08-21T13:17:13.390Z,27.30
2022-08-21T13:19:54.613Z,27.30
2022-08-21T13:22:33.454Z,27.30
2022-08-21T13:25:01.561Z,27.30
2022-08-21T13:27:34.358Z,27.20
2022-08-21T13:30:02.524Z,27.10
2022-08-21T13:32:33.153Z,27.20
2022-08-21T13:35:01.666Z,27.10
2022-08-21T13:37:30.131Z,27.10
2022-08-21T13:39:57.469Z,27.20
2022-08-21T13:42:25.148Z,27.20
2022-08-21T13:44:54.171Z,27.10
2022-08-21T13:47:21.323Z,27.10
2022-08-21T13:49:49.481Z,27.20
2022-08-21T13:52:18.606Z,27.30
2022-08-21T13:54:53.615Z,27.30
2022-08-21T13:57:24.981Z,27.30
2022-08-21T13:59:51.857Z,27.30
2022-08-21T14:02:21.516Z,27.30
2022-08-21T14:04:58.690Z,27.30
2022-08-21T14:07:45.708Z,27.30
2022-08-21T14:10:12.560Z,27.30
2022-08-21T14:12:43.054Z,27.20
2022-08-21T14:15:11.191Z,27.20
2022-08-21T14:17:39.566Z,27.20
2022-08-21T14:20:08.717Z,27.20
2022-08-21T14:22:35.419Z,27.30
2022-08-21T14:25:04.794Z,27.30
2022-08-21T14:27:32.222Z,27.20
2022-08-21T14:30:03.956Z,27.20
2022-08-21T14:32:37.319Z,27.20
2022-08-21T14:35:04.133Z,27.30
2022-08-21T14:37:30.867Z,27.30
2022-08-21T14:39:57.799Z,27.10
2022-08-21T14:42:25.717Z,27.10
2022-08-21T14:44:52.539Z,27.10
2022-08-21T14:47:19.289Z,27.00
2022-08-21T14:49:46.641Z,27.10
2022-08-21T14:52:13.316Z,27.20
2022-08-21T14:54:42.430Z,27.10
2022-08-21T14:57:11.616Z,27.10
2022-08-21T14:59:39.161Z,27.10
2022-08-21T15:02:06.880Z,27.20
2022-08-21T15:04:34.682Z,27.10
2022-08-21T15:07:01.656Z,27.00
2022-08-21T15:09:28.464Z,27.00
2022-08-21T15:11:57.444Z,26.90
2022-08-21T15:14:26.085Z,26.90
2022-08-21T15:16:53.332Z,26.90
2022-08-21T15:19:20.242Z,26.90
2022-08-21T15:21:46.998Z,26.90
2022-08-21T15:24:13.668Z,26.90
2022-08-21T15:26:40.718Z,26.90
2022-08-21T15:29:07.941Z,26.90
2022-08-21T15:31:35.000Z,26.80
2022-08-21T15:34:01.759Z,26.90
2022-08-21T15:36:28.440Z,26.90
2022-08-21T15:38:55.123Z,26.90
2022-08-21T15:41:22.610Z,26.90
2022-08-21T15:43:51.025Z,26.80
2022-08-21T15:46:18.458Z,26.90
2022-08-21T15:48:47.139Z,26.80
2022-08-21T15:51:14.860Z,26.80
2022-08-21T15:53:41.643Z,26.90
2022-08-21T15:56:19.598Z,26.90
2022-08-21T15:58:46.328Z,26.90
2022-08-21T16:01:13.662Z,26.90
2022-08-21T16:03:40.430Z,26.90
2022-08-21T16:06:07.244Z,26.90
2022-08-21T16:08:33.940Z,26.90
2022-08-21T16:11:01.356Z,26.90
2022-08-21T16:13:30.032Z,26.90
2022-08-21T16:15:56.747Z,27.00
2022-08-21T16:18:24.706Z,27.00
2022-08-21T16:20:51.418Z,27.00
2022-08-21T16:23:18.363Z,27.00
2022-08-21T16:25:45.745Z,27.10
2022-08-21T16:28:14.261Z,27.10
2022-08-21T16:30:41.791Z,27.10
2022-08-21T16:33:14.980Z,27.10
2022-08-21T16:35:41.654Z,27.00
2022-08-21T16:38:08.506Z,26.90
2022-08-21T16:40:36.140Z,26.90
2022-08-21T16:43:03.114Z,27.00
2022-08-21T16:45:33.050Z,27.10
2022-08-21T16:48:00.376Z,27.00
2022-08-21T16:50:27.036Z,27.00
2022-08-21T16:52:54.503Z,27.00
2022-08-21T16:55:22.165Z,27.00
2022-08-21T16:57:48.898Z,26.90
2022-08-21T17:00:15.931Z,26.90
2022-08-21T17:02:49.076Z,26.90
2022-08-21T17:05:16.450Z,26.80
2022-08-21T17:07:43.804Z,26.90
2022-08-21T17:10:13.985Z,26.80
2022-08-21T17:12:41.676Z,26.90
2022-08-21T17:15:12.681Z,26.90
2022-08-21T17:17:41.403Z,26.90
2022-08-21T17:20:09.384Z,26.90
2022-08-21T17:22:36.070Z,26.90
2022-08-21T17:25:02.953Z,26.90
2022-08-21T17:27:29.720Z,27.00
2022-08-21T17:29:56.858Z,27.10
2022-08-21T17:32:24.220Z,27.00
2022-08-21T17:34:50.925Z,27.00
2022-08-21T17:37:17.862Z,27.00
2022-08-21T17:39:45.430Z,27.10
2022-08-21T17:42:13.717Z,27.00
2022-08-21T17:44:41.760Z,27.10
2022-08-21T17:47:08.853Z,27.10
2022-08-21T17:49:35.551Z,27.10
2022-08-21T17:52:02.386Z,27.10
2022-08-21T17:54:30.903Z,27.10
2022-08-21T17:56:59.715Z,27.10
2022-08-21T17:59:27.323Z,27.10
2022-08-21T18:01:58.096Z,27.00
2022-08-21T18:04:24.784Z,27.00
2022-08-21T18:06:51.471Z,27.00
2022-08-21T18:09:18.451Z,26.90
2022-08-21T18:11:45.193Z,27.00
2022-08-21T18:14:12.320Z,27.00
2022-08-21T18:16:39.113Z,27.00
2022-08-21T18:19:09.568Z,26.90
2022-08-21T18:21:36.294Z,26.90
2022-08-21T18:24:03.115Z,26.90
2022-08-21T18:26:31.455Z,26.90
2022-08-21T18:29:00.400Z,26.90
2022-08-21T18:31:33.292Z,27.00
2022-08-21T18:34:00.932Z,27.00
2022-08-21T18:36:29.452Z,27.10
2022-08-21T18:39:19.503Z,27.20
2022-08-21T18:41:46.585Z,27.20
2022-08-21T18:44:15.211Z,27.10
2022-08-21T18:46:43.517Z,27.10
2022-08-21T18:49:10.459Z,27.10
2022-08-21T18:51:37.211Z,27.10
2022-08-21T18:54:12.820Z,27.10
2022-08-21T18:56:40.048Z,27.10
2022-08-21T18:59:07.898Z,27.10
2022-08-21T19:01:34.681Z,27.00
2022-08-21T19:04:02.268Z,27.00
2022-08-21T19:06:28.953Z,27.10
2022-08-21T19:08:56.128Z,27.10
2022-08-21T19:11:24.874Z,27.00
2022-08-21T19:13:52.843Z,27.00
2022-08-21T19:16:20.746Z,26.90
2022-08-21T19:18:48.658Z,26.90
2022-08-21T19:30:09.304Z,26.80
2022-08-21T19:32:42.381Z,26.80
2022-08-21T19:35:28.420Z,26.80
2022-08-21T19:38:13.792Z,26.80
2022-08-21T19:40:42.049Z,26.80
2022-08-21T19:43:11.569Z,26.80
2022-08-21T19:45:38.603Z,26.80
2022-08-21T19:48:25.374Z,26.80
2022-08-21T19:50:53.011Z,26.80
2022-08-21T19:53:19.874Z,26.80
2022-08-21T19:56:06.063Z,26.80
2022-08-21T19:58:37.232Z,26.80
2022-08-21T20:01:11.298Z,26.80
2022-08-21T20:03:41.299Z,26.80
2022-08-21T20:06:10.178Z,26.80
2022-08-21T20:08:37.089Z,26.80
2022-08-21T20:11:04.398Z,26.80
2022-08-21T20:13:34.434Z,26.80
2022-08-21T20:16:02.096Z,26.80
2022-08-21T20:18:29.913Z,26.80
2022-08-21T20:20:58.412Z,26.80
2022-08-21T20:31:43.561Z,26.80
2022-08-21T20:34:10.321Z,26.80
2022-08-21T20:36:56.522Z,26.80
2022-08-21T20:39:23.979Z,26.80
2022-08-21T20:41:51.959Z,26.80
2022-08-21T20:44:37.944Z,26.80
2022-08-21T20:47:13.651Z,26.80
2022-08-21T20:52:46.937Z,26.80
2022-08-21T20:55:15.229Z,26.80
2022-08-21T20:58:01.384Z,26.80
2022-08-21T21:00:29.839Z,26.80
2022-08-21T21:06:15.902Z,26.80
2022-08-21T21:09:06.892Z,26.80
2022-08-21T21:11:36.020Z,26.80
2022-08-21T21:14:10.432Z,26.80
2022-08-21T21:19:43.457Z,26.80
2022-08-21T21:22:13.186Z,26.80
2022-08-21T21:24:57.952Z,26.80
2022-08-21T21:27:43.592Z,26.80
2022-08-21T21:30:34.638Z,26.80
2022-08-21T21:33:03.154Z,26.80
2022-08-21T21:35:36.378Z,26.80
2022-08-21T21:41:18.121Z,26.80
2022-08-21T21:43:54.642Z,26.80
2022-08-21T21:46:31.029Z,26.80
2022-08-21T21:49:13.311Z,26.80
2022-08-21T21:52:00.417Z,26.80
2022-08-21T21:54:46.174Z,26.80
2022-08-21T21:57:33.856Z,26.80
2022-08-21T22:00:06.602Z,26.80
2022-08-21T22:02:51.716Z,26.80
2022-08-21T22:06:15.921Z,26.80
2022-08-21T22:08:52.531Z,26.80
2022-08-21T22:11:28.587Z,26.80
2022-08-21T22:14:02.697Z,26.80
2022-08-21T22:16:32.553Z,26.80
2022-08-21T22:19:01.687Z,26.80
2022-08-21T22:21:35.736Z,26.80
2022-08-21T22:24:05.856Z,26.80
2022-08-21T22:26:52.769Z,26.80
2022-08-21T22:29:20.853Z,26.80
2022-08-21T22:32:06.835Z,26.80
2022-08-21T22:34:33.991Z,26.80
2022-08-21T22:37:03.706Z,26.80
2022-08-21T22:39:36.050Z,26.70
2022-08-21T22:42:07.812Z,26.80
2022-08-21T22:44:47.762Z,26.80
2022-08-21T22:47:19.028Z,26.80
2022-08-21T22:49:47.934Z,26.80
2022-08-21T22:52:33.406Z,26.80
2022-08-21T22:55:04.215Z,26.80
2022-08-21T22:57:32.460Z,26.80
2022-08-21T23:00:01.182Z,26.80
2022-08-21T23:02:38.608Z,26.70
2022-08-21T23:05:11.090Z,26.80
2022-08-21T23:07:42.900Z,26.80
2022-08-21T23:10:28.786Z,26.80
2022-08-21T23:15:55.793Z,26.80
2022-08-21T23:18:35.955Z,26.80
2022-08-21T23:21:02.713Z,26.80
2022-08-21T23:23:31.261Z,26.70
2022-08-21T23:26:12.378Z,26.80
2022-08-21T23:29:03.053Z,26.70
2022-08-21T23:31:45.636Z,26.80
2022-08-21T23:34:31.989Z,26.80
2022-08-21T23:37:17.396Z,26.80
2022-08-21T23:39:52.964Z,26.80
2022-08-21T23:42:31.253Z,26.80
2022-08-21T23:44:57.908Z,26.70
2022-08-21T23:47:43.445Z,26.70
2022-08-21T23:50:13.830Z,26.80
2022-08-21T23:53:01.159Z,26.80
2022-08-21T23:55:35.533Z,26.80
2022-08-21T23:58:08.433Z,26.80
